createdAt,value
2018-09-19T00:00:56.262Z,100971.64
2018-09-19T00:03:24.483Z,100971.56
2018-09-19T00:05:52.709Z,100975.70
2018-09-19T00:08:20.928Z,100986.32
2018-09-19T00:10:49.221Z,100983.68
2018-09-19T00:13:17.432Z,100985.53
2018-09-19T00:15:45.637Z,100986.11
2018-09-19T00:18:13.877Z,100979.96
2018-09-19T00:20:42.106Z,100979.05
2018-09-19T00:23:10.351Z,100986.15
2018-09-19T00:25:38.523Z,100989.41
2018-09-19T00:28:06.758Z,100989.34
2018-09-19T00:30:34.994Z,100992.00
2018-09-19T00:33:03.209Z,100991.06
2018-09-19T00:35:31.489Z,101000.83
2018-09-19T00:37:59.712Z,101006.58
2018-09-19T00:40:27.930Z,101010.36
2018-09-19T00:42:56.144Z,101020.30
2018-09-19T00:45:24.362Z,101018.55
2018-09-19T00:47:52.570Z,101017.30
2018-09-19T00:50:20.829Z,101010.22
2018-09-19T00:52:49.038Z,101010.37
2018-09-19T00:55:17.250Z,101007.55
2018-09-19T00:57:45.461Z,101010.83
2018-09-19T01:00:13.732Z,101019.30
2018-09-19T01:02:41.948Z,101019.79
2018-09-19T01:05:10.155Z,101021.50
2018-09-19T01:07:38.379Z,101023.85
2018-09-19T01:10:06.639Z,101026.36
2018-09-19T01:12:34.853Z,101034.74
2018-09-19T01:15:03.106Z,101027.05
2018-09-19T01:17:31.389Z,101032.52
2018-09-19T01:19:59.603Z,101033.39
2018-09-19T01:22:27.854Z,101046.34
2018-09-19T01:24:56.062Z,101045.48
2018-09-19T01:27:24.288Z,101050.31
2018-09-19T01:29:52.489Z,101056.11
2018-09-19T01:32:20.726Z,101055.72
2018-09-19T01:34:48.952Z,101062.95
2018-09-19T01:37:17.153Z,101058.88
2018-09-19T01:39:45.374Z,101058.39
2018-09-19T01:42:13.582Z,101056.14
2018-09-19T01:44:41.807Z,101063.69
2018-09-19T01:47:10.107Z,101068.45
2018-09-19T01:49:38.370Z,101066.23
2018-09-19T01:52:06.751Z,101064.81
2018-09-19T01:54:34.988Z,101067.63
2018-09-19T01:57:03.173Z,101067.20
2018-09-19T01:59:31.385Z,101062.25
2018-09-19T02:01:59.623Z,101070.91
2018-09-19T02:04:27.825Z,101064.73
2018-09-19T02:06:56.045Z,101066.80
2018-09-19T02:09:24.253Z,101066.15
2018-09-19T02:11:52.466Z,101073.81
2018-09-19T02:14:20.684Z,101070.20
2018-09-19T02:16:48.926Z,101073.42
2018-09-19T02:19:17.158Z,101069.59
2018-09-19T02:21:45.382Z,101068.66
2018-09-19T02:24:13.593Z,101065.61
2018-09-19T02:26:41.801Z,101067.54
2018-09-19T02:29:10.032Z,101063.88
2018-09-19T02:31:38.280Z,101064.88
2018-09-19T02:34:06.720Z,101067.06
2018-09-19T02:36:34.943Z,101069.70
2018-09-19T02:39:03.726Z,101071.59
2018-09-19T02:41:31.946Z,101074.58
2018-09-19T02:44:00.166Z,101066.22
2018-09-19T02:46:28.387Z,101057.42
2018-09-19T02:48:56.633Z,101067.54
2018-09-19T02:51:24.846Z,101085.23
2018-09-19T02:53:53.077Z,101087.70
2018-09-19T02:56:21.309Z,101088.77
2018-09-19T02:58:49.604Z,101089.19
2018-09-19T03:01:17.823Z,101089.95
2018-09-19T03:03:46.025Z,101093.34
2018-09-19T03:06:14.235Z,101087.20
2018-09-19T03:08:42.438Z,101083.56
2018-09-19T03:11:10.663Z,101094.83
2018-09-19T03:13:38.884Z,101106.25
2018-09-19T03:16:07.147Z,101096.52
2018-09-19T03:18:35.399Z,101082.50
2018-09-19T03:21:03.718Z,101090.48
2018-09-19T03:23:31.946Z,101083.39
2018-09-19T03:26:00.162Z,101078.19
2018-09-19T03:28:28.382Z,101069.22
2018-09-19T03:30:56.635Z,101071.09
2018-09-19T03:33:24.861Z,101067.62
2018-09-19T03:35:53.097Z,101065.38
2018-09-19T03:38:21.318Z,101062.70
2018-09-19T03:40:49.541Z,101071.37
2018-09-19T03:43:17.747Z,101069.77
2018-09-19T03:45:45.972Z,101073.92
2018-09-19T03:48:14.185Z,101084.55
2018-09-19T03:50:42.393Z,101092.98
2018-09-19T03:53:10.610Z,101087.59
2018-09-19T03:55:38.849Z,101083.09
2018-09-19T03:58:07.088Z,101079.38
2018-09-19T04:00:35.274Z,101076.83
2018-09-19T04:03:03.493Z,101078.56
2018-09-19T04:05:31.714Z,101078.56
2018-09-19T04:07:59.929Z,101086.92
2018-09-19T04:10:28.150Z,101080.61
2018-09-19T04:12:56.361Z,101072.18
2018-09-19T04:15:24.572Z,101083.83
2018-09-19T04:17:52.887Z,101079.12
2018-09-19T04:20:21.016Z,101085.76
2018-09-19T04:22:49.247Z,101087.55
2018-09-19T04:25:17.458Z,101087.56
2018-09-19T04:27:45.669Z,101086.11
2018-09-19T04:30:13.875Z,101079.46
2018-09-19T04:32:42.134Z,101090.95
2018-09-19T04:35:10.352Z,101079.27
2018-09-19T04:37:38.557Z,101076.19
2018-09-19T04:40:06.816Z,101079.21
2018-09-19T04:42:35.035Z,101081.30
2018-09-19T04:45:03.286Z,101092.02
2018-09-19T04:47:31.480Z,101092.08
2018-09-19T04:49:59.707Z,101098.84
2018-09-19T04:52:27.937Z,101089.20
2018-09-19T04:54:56.177Z,101106.17
2018-09-19T04:57:24.357Z,101104.46
2018-09-19T04:59:52.577Z,101107.16
2018-09-19T05:02:20.809Z,101107.41
2018-09-19T05:04:49.032Z,101103.64
2018-09-19T05:07:17.423Z,101109.26
2018-09-19T05:09:45.561Z,101109.61
2018-09-19T05:12:13.791Z,101111.73
2018-09-19T05:14:42.001Z,101108.47
2018-09-19T05:17:10.223Z,101109.09
2018-09-19T05:19:38.512Z,101101.22
2018-09-19T05:22:06.701Z,101099.34
2018-09-19T05:24:34.918Z,101098.08
2018-09-19T05:27:03.139Z,101111.16
2018-09-19T05:29:31.395Z,101120.32
2018-09-19T05:31:59.609Z,101119.11
2018-09-19T05:34:27.835Z,101122.71
2018-09-19T05:36:56.058Z,101124.37
2018-09-19T05:39:24.284Z,101129.96
2018-09-19T05:41:52.493Z,101133.69
2018-09-19T05:44:20.723Z,101136.98
2018-09-19T05:46:48.925Z,101132.98
2018-09-19T05:49:17.143Z,101133.69
2018-09-19T05:51:45.375Z,101131.03
2018-09-19T05:54:13.590Z,101129.80
2018-09-19T05:56:41.812Z,101121.91
2018-09-19T05:59:10.066Z,101119.52
2018-09-19T06:01:38.278Z,101128.30
2018-09-19T06:04:06.674Z,101124.30
2018-09-19T06:06:34.902Z,101126.03
2018-09-19T06:09:03.210Z,101128.70
2018-09-19T06:11:31.438Z,101131.14
2018-09-19T06:13:59.651Z,101133.69
2018-09-19T06:16:27.885Z,101131.67
2018-09-19T06:18:56.108Z,101130.91
2018-09-19T06:21:24.330Z,101133.39
2018-09-19T06:23:52.529Z,101131.87
2018-09-19T06:26:21.729Z,101128.78
2018-09-19T06:28:49.964Z,101133.67
2018-09-19T06:31:18.202Z,101134.33
2018-09-19T06:33:46.419Z,101133.44
2018-09-19T06:36:14.629Z,101127.07
2018-09-19T06:38:42.852Z,101119.97
2018-09-19T06:41:11.078Z,101113.34
2018-09-19T06:43:39.285Z,101115.39
2018-09-19T06:46:07.559Z,101106.27
2018-09-19T06:48:35.789Z,101100.88
2018-09-19T06:51:04.014Z,101098.77
2018-09-19T06:53:32.241Z,101106.28
2018-09-19T06:56:00.466Z,101107.08
2018-09-19T06:58:28.759Z,101112.25
2018-09-19T07:00:56.976Z,101117.88
2018-09-19T07:03:25.208Z,101110.08
2018-09-19T07:05:53.495Z,101104.67
2018-09-19T07:08:21.662Z,101111.54
2018-09-19T07:10:49.875Z,101122.67
2018-09-19T07:13:18.083Z,101119.42
2018-09-19T07:15:46.327Z,101107.44
2018-09-19T07:18:14.560Z,101112.42
2018-09-19T07:20:42.813Z,101110.19
2018-09-19T07:23:11.041Z,101103.96
2018-09-19T07:25:39.296Z,101114.54
2018-09-19T07:28:07.513Z,101119.80
2018-09-19T07:30:35.734Z,101118.25
2018-09-19T07:33:03.961Z,101120.81
2018-09-19T07:35:32.178Z,101119.33
2018-09-19T07:38:00.376Z,101113.02
2018-09-19T07:40:28.596Z,101116.76
2018-09-19T07:42:56.809Z,101116.34
2018-09-19T07:45:25.046Z,101127.39
2018-09-19T07:47:53.257Z,101119.31
2018-09-19T07:50:21.486Z,101130.33
2018-09-19T07:52:49.800Z,101127.11
2018-09-19T07:55:18.049Z,101122.20
2018-09-19T07:57:46.259Z,101123.42
2018-09-19T08:00:14.464Z,101126.95
2018-09-19T08:02:42.700Z,101121.19
2018-09-19T08:05:10.948Z,101125.03
2018-09-19T08:07:39.629Z,101129.70
2018-09-19T08:10:07.849Z,101125.61
2018-09-19T08:12:36.094Z,101126.27
2018-09-19T08:15:04.373Z,101134.73
2018-09-19T08:17:32.597Z,101135.70
2018-09-19T08:20:00.831Z,101134.87
2018-09-19T08:22:29.068Z,101135.54
2018-09-19T08:24:57.278Z,101123.55
2018-09-19T08:27:25.503Z,101125.61
2018-09-19T08:29:53.708Z,101127.14
2018-09-19T08:32:21.938Z,101131.56
2018-09-19T08:34:50.153Z,101138.52
2018-09-19T08:37:18.436Z,101130.80
2018-09-19T08:39:46.633Z,101134.66
2018-09-19T08:42:14.851Z,101129.48
2018-09-19T08:44:43.783Z,101138.55
2018-09-19T08:47:11.992Z,101136.50
2018-09-19T08:49:40.218Z,101134.06
2018-09-19T08:52:08.453Z,101129.41
2018-09-19T08:54:36.673Z,101132.05
2018-09-19T08:57:04.909Z,101128.61
2018-09-19T08:59:33.106Z,101129.01
2018-09-19T09:02:01.329Z,101132.55
2018-09-19T09:04:29.622Z,101125.25
2018-09-19T09:06:57.835Z,101121.03
2018-09-19T09:09:27.116Z,101124.39
2018-09-19T09:11:55.592Z,101124.06
2018-09-19T09:14:23.816Z,101125.53
2018-09-19T09:16:52.017Z,101130.28
2018-09-19T09:19:20.269Z,101121.48
2018-09-19T09:21:48.638Z,101125.13
2018-09-19T09:24:16.923Z,101125.38
2018-09-19T09:26:45.485Z,101115.66
2018-09-19T09:29:13.682Z,101105.69
2018-09-19T09:31:43.235Z,101106.31
2018-09-19T09:34:11.615Z,101097.72
2018-09-19T09:36:39.816Z,101095.77
2018-09-19T09:39:08.148Z,101097.78
2018-09-19T09:41:36.380Z,101094.75
2018-09-19T09:44:04.613Z,101092.22
2018-09-19T09:46:32.835Z,101103.97
2018-09-19T09:49:01.042Z,101096.97
2018-09-19T09:51:29.408Z,101093.42
2018-09-19T09:53:57.960Z,101097.64
2018-09-19T09:56:26.176Z,101086.09
2018-09-19T09:58:54.379Z,101080.32
2018-09-19T10:01:22.606Z,101084.05
2018-09-19T10:03:50.813Z,101080.62
2018-09-19T10:06:19.051Z,101078.89
2018-09-19T10:08:47.252Z,101078.33
2018-09-19T10:11:15.473Z,101083.77
2018-09-19T10:13:43.805Z,101079.56
2018-09-19T10:16:11.947Z,101070.72
2018-09-19T10:18:40.188Z,101065.76
2018-09-19T10:21:08.403Z,101064.34
2018-09-19T10:23:36.605Z,101063.67
2018-09-19T10:26:04.864Z,101063.29
2018-09-19T10:28:33.118Z,101056.44
2018-09-19T10:31:01.357Z,101052.06
2018-09-19T10:33:29.687Z,101053.00
2018-09-19T10:35:57.890Z,101052.03
2018-09-19T10:38:26.113Z,101046.55
2018-09-19T10:40:54.343Z,101051.01
2018-09-19T10:43:22.580Z,101049.77
2018-09-19T10:45:50.780Z,101052.79
2018-09-19T10:48:19.027Z,101044.36
2018-09-19T10:50:47.270Z,101048.22
2018-09-19T10:53:15.485Z,101041.38
2018-09-19T10:55:43.757Z,101033.23
2018-09-19T10:58:11.962Z,101037.06
2018-09-19T11:00:40.193Z,101035.66
2018-09-19T11:03:08.413Z,101032.23
2018-09-19T11:05:36.659Z,101032.84
2018-09-19T11:08:04.897Z,101036.98
2018-09-19T11:10:33.210Z,101037.69
2018-09-19T11:13:01.442Z,101034.11
2018-09-19T11:15:29.670Z,101029.97
2018-09-19T11:17:57.942Z,101029.77
2018-09-19T11:20:26.218Z,101026.73
2018-09-19T11:22:54.440Z,101030.95
2018-09-19T11:25:22.676Z,101020.17
2018-09-19T11:27:50.978Z,101030.47
2018-09-19T11:30:19.210Z,101023.88
2018-09-19T11:32:47.439Z,101019.28
2018-09-19T11:35:15.662Z,101022.66
2018-09-19T11:37:43.894Z,101024.23
2018-09-19T11:40:12.140Z,101023.85
2018-09-19T11:42:40.371Z,101018.66
2018-09-19T11:45:08.578Z,101017.75
2018-09-19T11:47:36.885Z,101006.31
2018-09-19T11:50:05.314Z,101018.75
2018-09-19T11:52:33.562Z,101014.52
2018-09-19T11:55:01.798Z,101015.44
2018-09-19T11:57:30.026Z,101013.95
2018-09-19T11:59:58.355Z,101010.42
2018-09-19T12:02:26.580Z,101002.03
2018-09-19T12:04:54.845Z,101003.05
2018-09-19T12:07:23.115Z,101004.61
2018-09-19T12:09:51.454Z,101010.53
2018-09-19T12:12:20.267Z,101004.58
2018-09-19T12:14:48.536Z,101000.14
2018-09-19T12:17:16.762Z,101001.95
2018-09-19T12:19:45.464Z,100998.42
2018-09-19T12:22:16.765Z,101003.87
2018-09-19T12:24:45.557Z,100991.25
2018-09-19T12:27:13.793Z,101001.05
2018-09-19T12:29:42.042Z,100994.98
2018-09-19T12:32:10.303Z,100990.41
2018-09-19T12:34:38.518Z,100990.27
2018-09-19T12:37:06.838Z,100979.33
2018-09-19T12:39:35.073Z,100986.50
2018-09-19T12:42:03.290Z,100983.56
2018-09-19T12:44:31.542Z,100990.64
2018-09-19T12:46:59.764Z,100980.81
2018-09-19T12:49:27.981Z,100987.09
2018-09-19T12:51:56.316Z,100984.83
2018-09-19T12:54:24.526Z,100984.27
2018-09-19T12:56:52.773Z,100984.50
2018-09-19T12:59:21.037Z,100990.88
2018-09-19T13:01:49.271Z,100994.66
2018-09-19T13:04:17.502Z,100983.08
2018-09-19T13:06:45.757Z,100988.03
2018-09-19T13:09:14.010Z,100998.05
2018-09-19T13:11:42.249Z,100981.95
2018-09-19T13:14:10.453Z,100981.84
2018-09-19T13:16:38.681Z,100980.42
2018-09-19T13:19:06.918Z,100982.24
2018-09-19T13:21:35.138Z,100976.26
2018-09-19T13:24:03.386Z,100977.59
2018-09-19T13:26:31.609Z,100969.80
2018-09-19T13:28:59.830Z,100965.86
2018-09-19T13:31:28.049Z,100970.16
2018-09-19T13:33:56.308Z,100963.80
2018-09-19T13:36:24.526Z,100961.30
2018-09-19T13:38:52.750Z,100947.56
2018-09-19T13:41:20.978Z,100954.34
2018-09-19T13:43:49.186Z,100937.44
2018-09-19T13:46:17.438Z,100949.80
2018-09-19T13:48:49.011Z,100944.64
2018-09-19T13:51:21.610Z,100946.43
2018-09-19T13:53:49.845Z,100953.16
2018-09-19T13:56:18.079Z,100945.14
2018-09-19T13:58:46.479Z,100949.39
2018-09-19T14:01:14.726Z,100933.45
2018-09-19T14:03:42.974Z,100935.28
2018-09-19T14:06:11.249Z,100942.48
2018-09-19T14:08:39.481Z,100934.79
2018-09-19T14:11:07.763Z,100937.42
2018-09-19T14:13:35.992Z,100937.20
2018-09-19T14:16:04.211Z,100935.46
2018-09-19T14:18:32.579Z,100926.81
2018-09-19T14:21:00.862Z,100934.73
2018-09-19T14:23:29.178Z,100933.42
2018-09-19T14:25:57.438Z,100929.64
2018-09-19T14:28:25.694Z,100926.64
2018-09-19T14:30:53.892Z,100932.61
2018-09-19T14:33:22.141Z,100930.83
2018-09-19T14:35:50.426Z,100930.98
2018-09-19T14:38:18.645Z,100917.81
2018-09-19T14:40:46.871Z,100928.92
2018-09-19T14:43:15.097Z,100918.78
2018-09-19T14:45:46.646Z,100923.56
2018-09-19T14:48:14.857Z,100920.73
2018-09-19T14:50:43.076Z,100916.00
2018-09-19T14:53:11.290Z,100914.14
2018-09-19T14:55:39.623Z,100909.89
2018-09-19T14:58:07.958Z,100907.01
2018-09-19T15:00:36.201Z,100904.57
2018-09-19T15:03:04.447Z,100899.84
2018-09-19T15:05:32.681Z,100892.79
2018-09-19T15:08:00.961Z,100891.21
2018-09-19T15:10:29.167Z,100881.45
2018-09-19T15:12:57.420Z,100892.93
2018-09-19T15:15:25.685Z,100903.66
2018-09-19T15:17:53.961Z,100892.68
2018-09-19T15:20:22.312Z,100901.23
2018-09-19T15:22:50.542Z,100893.55
2018-09-19T15:25:18.766Z,100897.05
2018-09-19T15:27:47.027Z,100901.03
2018-09-19T15:30:16.122Z,100901.91
2018-09-19T15:32:45.162Z,100902.23
2018-09-19T15:35:14.041Z,100893.06
2018-09-19T15:37:42.268Z,100898.69
2018-09-19T15:40:11.295Z,100908.41
2018-09-19T15:42:39.569Z,100911.08
2018-09-19T15:45:07.770Z,100906.98
2018-09-19T15:47:35.985Z,100898.13
2018-09-19T15:50:04.253Z,100902.16
2018-09-19T15:52:32.531Z,100906.89
2018-09-19T15:55:00.817Z,100911.70
2018-09-19T15:57:29.100Z,100905.84
2018-09-19T15:59:57.554Z,100903.26
2018-09-19T16:02:25.761Z,100910.82
2018-09-19T16:04:54.046Z,100903.33
2018-09-19T16:07:23.015Z,100908.94
2018-09-19T16:09:51.297Z,100907.11
2018-09-19T16:12:20.473Z,100907.91
2018-09-19T16:14:48.664Z,100907.63
2018-09-19T16:17:17.155Z,100907.84
2018-09-19T16:19:45.493Z,100910.89
2018-09-19T16:22:13.782Z,100909.50
2018-09-19T16:24:41.998Z,100913.21
2018-09-19T16:27:10.253Z,100908.29
2018-09-19T16:29:38.526Z,100906.75
2018-09-19T16:32:09.183Z,100920.93
2018-09-19T16:34:37.405Z,100921.89
2018-09-19T16:37:05.646Z,100925.33
2018-09-19T16:39:33.870Z,100928.45
2018-09-19T16:42:02.078Z,100933.11
2018-09-19T16:44:30.343Z,100935.02
2018-09-19T16:46:58.614Z,100932.41
2018-09-19T16:49:27.115Z,100934.86
2018-09-19T16:51:55.345Z,100933.05
2018-09-19T16:54:23.581Z,100933.80
2018-09-19T16:56:51.800Z,100935.61
2018-09-19T16:59:20.031Z,100939.39
2018-09-19T17:01:48.288Z,100939.19
2018-09-19T17:04:16.513Z,100940.44
2018-09-19T17:06:44.753Z,100941.09
2018-09-19T17:09:12.962Z,100936.36
2018-09-19T17:11:41.174Z,100942.39
2018-09-19T17:14:09.415Z,100941.75
2018-09-19T17:16:37.681Z,100942.30
2018-09-19T17:19:05.935Z,100945.23
2018-09-19T17:21:34.211Z,100959.22
2018-09-19T17:24:02.389Z,100956.98
2018-09-19T17:26:30.614Z,100956.38
2018-09-19T17:28:58.869Z,100968.06
2018-09-19T17:31:27.089Z,100962.94
2018-09-19T17:33:55.317Z,100968.66
2018-09-19T17:36:23.546Z,100979.36
2018-09-19T17:38:51.793Z,100976.47
2018-09-19T17:41:20.011Z,100979.59
2018-09-19T17:43:48.233Z,100980.77
2018-09-19T17:46:16.494Z,100987.83
2018-09-19T17:48:44.718Z,100991.27
2018-09-19T17:51:12.975Z,100995.54
2018-09-19T17:53:41.197Z,100999.75
2018-09-19T17:56:09.438Z,100997.56
2018-09-19T17:58:38.356Z,100996.05
2018-09-19T18:01:06.613Z,101004.62
2018-09-19T18:03:34.870Z,101008.62
2018-09-19T18:06:03.120Z,101013.77
2018-09-19T18:08:31.333Z,101012.09
2018-09-19T18:10:59.570Z,101016.28
2018-09-19T18:13:27.778Z,101022.74
2018-09-19T18:15:55.998Z,101019.33
2018-09-19T18:18:24.222Z,101021.41
2018-09-19T18:20:52.518Z,101027.37
2018-09-19T18:23:20.747Z,101026.30
2018-09-19T18:25:48.959Z,101032.67
2018-09-19T18:28:17.220Z,101039.83
2018-09-19T18:30:45.581Z,101040.28
2018-09-19T18:33:13.801Z,101038.54
2018-09-19T18:35:42.021Z,101046.61
2018-09-19T18:38:10.302Z,101055.54
2018-09-19T18:40:38.510Z,101054.34
2018-09-19T18:43:06.745Z,101062.75
2018-09-19T18:45:34.982Z,101063.23
2018-09-19T18:48:03.962Z,101065.43
2018-09-19T18:50:32.282Z,101075.89
2018-09-19T18:53:00.541Z,101081.43
2018-09-19T18:55:29.345Z,101077.19
2018-09-19T18:57:57.589Z,101079.00
2018-09-19T19:00:25.790Z,101081.20
2018-09-19T19:02:54.037Z,101075.39
2018-09-19T19:05:22.270Z,101080.91
2018-09-19T19:07:50.565Z,101089.67
2018-09-19T19:10:18.766Z,101086.97
2018-09-19T19:12:46.995Z,101086.68
2018-09-19T19:15:15.208Z,101088.55
2018-09-19T19:17:43.445Z,101090.58
2018-09-19T19:20:11.963Z,101092.47
2018-09-19T19:22:40.194Z,101095.03
2018-09-19T19:25:08.442Z,101100.19
2018-09-19T19:27:36.682Z,101100.81
2018-09-19T19:30:05.129Z,101102.20
2018-09-19T19:32:33.343Z,101101.05
2018-09-19T19:35:01.581Z,101102.47
2018-09-19T19:37:29.883Z,101111.91
2018-09-19T19:39:58.110Z,101102.59
2018-09-19T19:42:26.338Z,101110.19
2018-09-19T19:44:55.621Z,101112.25
2018-09-19T19:47:23.846Z,101109.05
2018-09-19T19:49:52.066Z,101120.30
2018-09-19T19:52:20.342Z,101115.55
2018-09-19T19:54:48.581Z,101122.23
2018-09-19T19:57:16.800Z,101120.39
2018-09-19T19:59:45.012Z,101118.96
2018-09-19T20:02:13.195Z,101122.78
2018-09-19T20:04:41.401Z,101129.20
2018-09-19T20:07:09.690Z,101126.65
2018-09-19T20:09:37.917Z,101128.98
2018-09-19T20:12:06.191Z,101128.38
2018-09-19T20:14:34.434Z,101136.05
2018-09-19T20:17:02.619Z,101136.45
2018-09-19T20:19:30.922Z,101149.17
2018-09-19T20:21:59.215Z,101140.41
2018-09-19T20:24:27.402Z,101143.07
2018-09-19T20:26:56.923Z,101139.55
2018-09-19T20:29:25.125Z,101142.42
2018-09-19T20:31:53.306Z,101143.06
2018-09-19T20:34:21.594Z,101142.28
2018-09-19T20:36:50.381Z,101154.98
2018-09-19T20:39:18.564Z,101156.31
2018-09-19T20:41:46.738Z,101156.67
2018-09-19T20:44:15.025Z,101158.83
2018-09-19T20:46:43.225Z,101158.89
2018-09-19T20:49:11.421Z,101169.42
2018-09-19T20:51:39.627Z,101169.66
2018-09-19T20:54:07.923Z,101169.67
2018-09-19T20:56:36.152Z,101178.02
2018-09-19T20:59:05.906Z,101176.16
2018-09-19T21:01:34.082Z,101174.55
2018-09-19T21:04:02.442Z,101173.95
2018-09-19T21:06:30.632Z,101175.23
2018-09-19T21:08:58.806Z,101175.55
2018-09-19T21:11:26.998Z,101169.73
2018-09-19T21:13:55.514Z,101177.59
2018-09-19T21:16:23.838Z,101179.58
2018-09-19T21:18:52.740Z,101181.08
2018-09-19T21:21:21.061Z,101189.80
2018-09-19T21:23:49.311Z,101187.94
2018-09-19T21:26:17.537Z,101192.28
2018-09-19T21:28:45.761Z,101197.11
2018-09-19T21:31:13.973Z,101191.53
2018-09-19T21:33:42.202Z,101195.42
2018-09-19T21:36:10.438Z,101198.28
2018-09-19T21:38:38.646Z,101195.26
2018-09-19T21:41:06.991Z,101202.06
2018-09-19T21:43:35.206Z,101203.42
2018-09-19T21:46:03.448Z,101203.96
2018-09-19T21:48:31.735Z,101203.17
2018-09-19T21:50:59.913Z,101212.17
2018-09-19T21:53:28.229Z,101205.67
2018-09-19T21:55:56.466Z,101203.42
2018-09-19T21:58:24.690Z,101210.41
2018-09-19T22:00:58.401Z,101215.47
2018-09-19T22:03:26.630Z,101212.11
2018-09-19T22:05:55.001Z,101213.40
2018-09-19T22:08:23.351Z,101217.81
2018-09-19T22:10:51.557Z,101212.34
2018-09-19T22:13:19.808Z,101212.45
2018-09-19T22:15:48.017Z,101220.69
2018-09-19T22:18:17.474Z,101217.06
2018-09-19T22:20:45.765Z,101219.78
2018-09-19T22:23:13.990Z,101221.20
2018-09-19T22:25:42.205Z,101226.31
2018-09-19T22:28:10.501Z,101220.22
2018-09-19T22:30:38.697Z,101226.30
2018-09-19T22:33:07.027Z,101226.75
2018-09-19T22:35:35.509Z,101226.38
2018-09-19T22:38:03.746Z,101222.42
2018-09-19T22:40:31.956Z,101229.05
2018-09-19T22:43:00.170Z,101224.00
2018-09-19T22:45:28.392Z,101227.88
2018-09-19T22:47:56.640Z,101226.25
2018-09-19T22:50:24.914Z,101230.45
2018-09-19T22:52:53.129Z,101224.05
2018-09-19T22:55:21.362Z,101215.14
2018-09-19T22:57:49.583Z,101218.19
2018-09-19T23:00:17.793Z,101219.98
2018-09-19T23:02:46.014Z,101216.42
2018-09-19T23:05:14.253Z,101221.03
2018-09-19T23:07:42.462Z,101218.43
2018-09-19T23:10:10.690Z,101218.67
2018-09-19T23:12:38.924Z,101210.66
2018-09-19T23:15:07.174Z,101215.55
2018-09-19T23:17:35.413Z,101208.95
2018-09-19T23:20:03.674Z,101202.08
2018-09-19T23:22:31.935Z,101201.25
2018-09-19T23:25:00.137Z,101200.66
2018-09-19T23:27:28.382Z,101197.64
2018-09-19T23:29:56.579Z,101200.27
2018-09-19T23:32:24.793Z,101203.36
2018-09-19T23:34:53.014Z,101202.36
2018-09-19T23:37:21.243Z,101194.34
2018-09-19T23:39:49.474Z,101198.82
2018-09-19T23:42:17.703Z,101199.77
2018-09-19T23:44:45.937Z,101195.92
2018-09-19T23:47:14.282Z,101203.52
2018-09-19T23:49:42.550Z,101197.25
2018-09-19T23:52:10.764Z,101199.44
2018-09-19T23:54:38.989Z,101195.70
2018-09-19T23:57:07.203Z,101189.92
2018-09-19T23:59:35.438Z,101189.12
